Weather observations for the past three days for
Pohnpei Island
| Date | Time (+11) | Wind (mph) | Vis. (mi.) | Weather | Sky Cond. | Temperature (ºF) | Relative Humidity | Wind Chill (°F) | Heat Index (°F) | Pressure | Precipitation (in) | ||||||
|---|---|---|---|---|---|---|---|---|---|---|---|---|---|---|---|---|---|
| Air | Dwpt | 6 hour | altimeter (in) | sea level (mb) | 1 hr | 3 hr | 6 hr | ||||||||||
| Max. | Min. | ||||||||||||||||
| 09 | 12:54 | E 6 | 12.00 | Light Showers Rain | BKN016CB OVC130 | 82.4 | 78.8 | 89% | 92 | 29.79 | 0.0 | ||||||
| 09 | 11:56 | SE 6 | 10.00 | Showers in Vicinity | BKN016CB OVC130 | 82.4 | 78.8 | 89% | 92 | 29.81 | 0.0 | ||||||
| 09 | 10:58 | E 7 | 15.00 | Mostly Cloudy | SCT016TCU BKN130 BKN300 | 87.8 | 77 | 70% | 100 | 29.81 | 0.0 | ||||||
| 09 | 09:53 | SE 7 | 15.00 | Overcast | BKN016CB BKN130 OVC300 | 84.2 | 78.8 | 84% | 96 | 29.83 | 0.0 | ||||||
| 09 | 08:53 | E 7 | 15.00 | Mostly Cloudy | SCT016CB BKN130 BKN300 | 84.2 | 78.8 | 84% | 96 | 29.84 | 0.0 | ||||||
| 09 | 08:15 | SE 9 | 15.00 | Mostly Cloudy | SCT016CB BKN130 BKN300 | 84.2 | 78.8 | 84% | 96 | 29.83 | 0.0 | ||||||
| 08 | 15:53 | SE 12 | 10.00 | Light Showers Rain | BKN016CB OVC130 | 80.6 | 77 | 89% | 87 | 29.74 | 0.0 | ||||||
| 08 | 14:52 | SE 12 | 15.00 | Overcast | BKN016CB OVC130 | 82.4 | 77 | 84% | 91 | 29.74 | 0.0 | ||||||
| 08 | 13:52 | E 10 | 13.00 | Showers in Vicinity | BKN016CB OVC130 | 80.6 | 77 | 89% | 87 | 29.74 | 0.0 | ||||||
| 08 | 12:52 | E 10 | 13.00 | Showers in Vicinity | BKN016CB OVC130 | 82.4 | 77 | 84% | 91 | 29.76 | 0.0 | ||||||
| 08 | 11:56 | E 8 | 15.00 | Overcast | BKN016CB OVC130 | 80.6 | 77 | 89% | 87 | 29.77 | 0.0 | ||||||
| 08 | 10:53 | E 8 | 15.00 | Overcast | BKN016CB OVC130 | 82.4 | 77 | 84% | 91 | 29.79 | 0.0 | ||||||
| 08 | 09:54 | NE 18 | 11.00 | Showers in Vicinity | BKN016CB OVC130 | 80.6 | 77 | 89% | 87 | 29.78 | 0.0 | ||||||
| 08 | 08:56 | E 12 | 8.00 | Light Rain | BKN016CB OVC130 | 78.8 | 75.2 | 89% | 82 | 29.81 | 0.0 | ||||||
| 08 | 07:53 | SE 9 | 8.00 | Light Rain | BKN017TCU OVC130 | 78.8 | 75.2 | 89% | 82 | 29.8 | 0.0 | ||||||
| 07 | 14:54 | E 14 | 14.00 | Light Rain | BKN017TCU OVC120 | 82.4 | 77 | 84% | 91 | 29.7 | 0.0 | ||||||
| 07 | 13:51 | E 13 G 20 | 10.00 | Light Rain | BKN017TCU OVC120 | 82.4 | 77 | 84% | 91 | 29.75 | 0.0 | ||||||
| 07 | 12:57 | E 13 | 10.00 | Showers in Vicinity | BKN017TCU OVC120 | 82.4 | 77 | 84% | 91 | 29.75 | 0.0 | ||||||
| 07 | 11:58 | E 15 | 14.00 | Showers in Vicinity | BKN017TCU OVC120 | 82.4 | 77 | 84% | 91 | 29.76 | 0.0 | ||||||
| 07 | 10:58 | E 15 | 14.00 | Light Rain | BKN017TCU OVC120 | 80.6 | 77 | 89% | 87 | 29.77 | 0.0 | ||||||
| 07 | 09:51 | E 9 | 12.00 | Light Rain | BKN017TCU OVC120 | 78.8 | 77 | 94% | 83 | 29.8 | 0.0 | ||||||
| 07 | 08:51 | E 5 | 13.00 | Light Rain | BKN017TCU OVC120 | 78.8 | 77 | 94% | 83 | 29.81 | 0.0 | ||||||
| 07 | 07:57 | E 5 | 13.00 | Light Rain | BKN017TCU OVC120 | 78.8 | 77 | 94% | 83 | 29.8 | 0.0 | ||||||
| 06 | 17:53 | NE 12 | 3.00 | Light Showers Rain | BKN017CB OVC120 | 78.8 | 77 | 94% | 83 | 29.74 | 0.0 | ||||||
| 06 | 16:53 | E 7 | 7.00 | Light Showers Rain | BKN017CB OVC120 | 78.8 | 77 | 94% | 83 | 29.72 | 0.0 | ||||||
| 06 | 16:30 | E 12 | 2.00 | Showers Rain | BKN017CB OVC120 | 80.6 | 77 | 89% | 87 | 29.71 | 0.0 | ||||||
| 06 | 15:56 | E 12 | 15.00 | Overcast | SCT017CB BKN130 OVC300 | 87.8 | 77 | 70% | 100 | 29.71 | 0.0 | ||||||
| 06 | 14:55 | E 8 | 15.00 | Mostly Cloudy | SCT017TCU BKN130 BKN300 | 86 | 78.8 | 79% | 99 | 29.72 | 0.0 | ||||||
| 06 | 13:56 | E 8 | 15.00 | Mostly Cloudy | SCT017CB BKN130 BKN300 | 84.2 | 78.8 | 84% | 96 | 29.73 | 0.0 | ||||||
| Date | Time (+11) | Wind (mph) | Vis. (mi.) | Weather | Sky Cond. | Air | Dwpt | Max. | Min. | Relative Humidity | Wind Chill (°F) | Heat Index (°F) | altimeter (in) | sea level (mb) | 1 hr | 3 hr | 6 hr |
| 6 hour | |||||||||||||||||
| Temperature (ºF) | Pressure | Precipitation (in) | |||||||||||||||